TwitterFacebook
  • www.extracrew.com

VIDEONOTICIA: Go around en Salzburgo

  • Visto: 763

FteJerez Flight Training Europe

El avión realizó una toma dura antes de irse de nuevo al aire.

El avión realizó una toma dura antes de irse de nuevo al aire.

La fuerte tormenta que azotó ayer gran parte de Austria puso en riesgo su tráfico aéreo

SALZBURGO (EXTRACREW.COM)- Un Boeing B737-8 de la compañía polaca Enter Air tuvo que abortar el aterrizaje en el aeropuerto de Salzburgo (Austria) al que se dirigía desde Frankfurt (Alemania) ayer lunes, a causa de la fuerte tormenta que azotó gran parte de Europa.

Durante la aproximación el avión fue afectado por fuertes turbulencias fruto de la cizalladura presente en la zona, lo que propició una toma dura y muy desestabilizada que recomendó finalmente un “go around” y el regreso al aeropuerto de destino.

Así se vivió el episodio desde dentro:

METAR en el momento de la toma:
LOWS 290950Z 28026G43KT 230V320 9999 -SHRA FEW040 BKN050 14/07 Q1003 TEMPO 4000 SHRA=

< Anterior
Siguiente >

Leave a Reply

Your email address will not be published. Required fields are marked *

Reload Image

You may use these HTML tags and attributes: <a href="" title=""> <abbr title=""> <acronym title=""> <b> <blockquote cite=""> <cite> <code> <del datetime=""> <em> <i> <q cite=""> <s> <strike> <strong>

Contactar / Publicidad

  • captcha

 

Worldmap

Extracrew.com: la comunidad aeronáutica en internet